Weather reports worldwide

Advertisment
Monte Cimone, Italy (16134): temperature & dewpoint: 15.05.2019 05:00:00 - 21.05.2019 05:00:00 (CEST)Monte Cimone, Italy (16134): wind speed: 15.05.2019 05:00:00 - 21.05.2019 05:00:00 (CEST)Monte Cimone, Italy (16134): wind direction: 15.05.2019 05:00:00 - 21.05.2019 05:00:00 (CEST)Monte Cimone, Italy (16134): visibility: 15.05.2019 05:00:00 - 21.05.2019 05:00:00 (CEST)Monte Cimone, Italy (16134): sunshine duration: 15.05.2019 05:00:00 - 21.05.2019 05:00:00 (CEST)
Date & Time tt [°C] td [°C] ff [km/h] ff [kn] dd vv [km] sd [min]
21.05.2019 05:00:00 - - - - - - -
21.05.2019 04:00:00 - - - - - - -
21.05.2019 03:00:00 2,0 2,0 31 17 W - -
21.05.2019 02:00:00 1,8 1,5 22 12 W - -
21.05.2019 01:00:00 1,4 1,1 28 15 WSW - -
21.05.2019 00:00:00 1,4 1,0 35 19 WSW - -
20.05.2019 23:00:00 1,6 0,9 31 17 SW - -
20.05.2019 22:00:00 1,4 0,5 11 6 SSW - -
20.05.2019 21:00:00 2,0 0,5 11 6 SSW 0,5 -
20.05.2019 20:00:00 2,2 -0,1 11 6 SSW 12 0
20.05.2019 19:00:00 2,6 0,2 11 6 SSW 15 0
20.05.2019 18:00:00 3,0 0,2 11 6 SSW 15 0
20.05.2019 17:00:00 3,0 -0,1 16 9 SSW 15 0
20.05.2019 16:00:00 3,0 0,2 16 9 SSW 0,8 0
20.05.2019 15:00:00 2,8 0,7 18 10 SSW 0,4 0
20.05.2019 14:00:00 2,4 1,7 16 9 SSW - 0
20.05.2019 13:00:00 2,2 1,3 13 7 SW - 0
20.05.2019 12:00:00 2,2 1,5 15 8 SW - 0
20.05.2019 11:00:00 1,6 0,9 13 7 SW - 0
20.05.2019 10:00:00 1,2 0,5 13 7 SW - 0
20.05.2019 09:00:00 1,0 -0,5 13 7 S - 0
20.05.2019 08:00:00 1,0 -0,3 11 6 ESE - 0
20.05.2019 07:00:00 1,0 -0,5 11 6 N - -
20.05.2019 06:00:00 1,2 -0,3 16 9 S - -
20.05.2019 05:00:00 2,0 0,5 15 8 SW - -
20.05.2019 04:00:00 2,0 0,1 29 16 SW - -
20.05.2019 03:00:00 2,0 0,1 29 16 SW - -
20.05.2019 02:00:00 2,0 0,5 11 6 SW - -
20.05.2019 01:00:00 2,0 0,5 11 6 SW - -
20.05.2019 00:00:00 2,0 0,5 21 11 SW - -
19.05.2019 23:00:00 2,2 1,3 13 7 SSW - -
19.05.2019 22:00:00 2,4 0,9 15 8 SW - -
19.05.2019 21:00:00 2,8 1,5 15 8 SW - -
19.05.2019 20:00:00 3,0 1,7 9 5 SW - 0
19.05.2019 19:00:00 3,0 1,4 5 3 WSW - 0
19.05.2019 18:00:00 3,6 1,8 13 7 SW - 0
19.05.2019 17:00:00 3,2 1,4 5 3 WSW - 0
19.05.2019 16:00:00 3,2 1,2 5 3 W - 0
19.05.2019 15:00:00 3,3 1,2 16 9 SW - 0
19.05.2019 14:00:00 3,2 2,6 5 3 SW - 0
19.05.2019 13:00:00 3,0 1,7 4 2 SSW - 0
19.05.2019 12:00:00 1,8 0,6 8 4 SSW - 0
19.05.2019 11:00:00 1,8 -0,1 15 8 S - 0
19.05.2019 10:00:00 1,8 -0,8 16 9 S - 0
19.05.2019 09:00:00 1,6 -0,3 16 9 SSE 0,1 0
19.05.2019 08:00:00 1,4 -0,4 11 6 SE - 0
19.05.2019 07:00:00 2,0 1,4 13 7 SSE - 0
19.05.2019 06:00:00 2,0 1,3 13 7 SSE - -
19.05.2019 05:00:00 2,2 0,1 11 6 S 10 -
19.05.2019 04:00:00 2,6 0,8 18 10 SSW 20 -
19.05.2019 03:00:00 - - - - - - -
19.05.2019 02:00:00 2,0 0,1 4 2 N 20 -
19.05.2019 01:00:00 1,6 -0,7 16 9 S 20 -
19.05.2019 00:00:00 2,0 1,3 5 3 S - -
18.05.2019 23:00:00 1,6 0,9 11 6 SE - -
18.05.2019 22:00:00 1,8 1,2 16 9 SE - -
18.05.2019 21:00:00 1,6 1,0 15 8 ESE - -
18.05.2019 20:00:00 1,8 1,2 13 7 E - 0
18.05.2019 19:00:00 2,4 1,8 5 3 SE - 0
18.05.2019 18:00:00 2,4 1,8 9 5 SSE - 0
18.05.2019 17:00:00 2,2 1,8 9 5 E - 0
18.05.2019 16:00:00 2,2 1,8 13 7 ENE - 0
18.05.2019 15:00:00 1,6 1,2 16 9 ESE - 0
18.05.2019 14:00:00 1,0 0,6 21 11 E - 0
18.05.2019 13:00:00 0,8 0,4 28 15 E - 0
18.05.2019 12:00:00 0,4 0,0 34 18 E - 0
18.05.2019 11:00:00 0,4 0,0 42 23 E - 0
18.05.2019 10:00:00 0,4 0,0 31 17 E - 0
18.05.2019 09:00:00 0,4 0,0 44 24 E - 0
18.05.2019 08:00:00 0,4 0,1 39 21 E - 0
18.05.2019 07:00:00 0,4 0,0 37 20 ESE - -
18.05.2019 06:00:00 0,4 0,0 35 19 ESE - -
18.05.2019 05:00:00 0,2 -0,1 37 20 SSE - -
18.05.2019 04:00:00 0,4 0,1 50 27 SSE - -
18.05.2019 03:00:00 0,4 0,1 55 30 SSE - -
18.05.2019 02:00:00 0,4 0,1 61 33 SSE - -
18.05.2019 01:00:00 0,8 0,5 39 21 S - -
18.05.2019 00:00:00 1,0 0,6 37 20 SSE - -
17.05.2019 23:00:00 1,4 1,1 46 25 S - -
17.05.2019 22:00:00 1,8 1,4 37 20 S - -
17.05.2019 21:00:00 1,8 1,4 31 17 S - -
17.05.2019 20:00:00 2,0 1,7 24 13 S - 0
17.05.2019 19:00:00 2,0 -0,4 22 12 S - 0
17.05.2019 18:00:00 2,2 -0,6 24 13 S 20 0
17.05.2019 17:00:00 2,2 -0,1 28 15 S 20 0
17.05.2019 16:00:00 2,2 -3,3 22 12 S 20 0
17.05.2019 15:00:00 2,0 -5,0 34 18 S 20 0
17.05.2019 14:00:00 2,0 -3,7 28 15 S 20 0
17.05.2019 13:00:00 2,0 0,2 26 14 S - 0
17.05.2019 12:00:00 2,4 0,9 22 12 SSE - 0
17.05.2019 11:00:00 2,2 0,4 15 8 ESE - 0
17.05.2019 10:00:00 2,4 -3,5 16 9 ESE 30 12
17.05.2019 09:00:00 2,4 -3,5 11 6 ESE 30 18
17.05.2019 08:00:00 2,0 -2,9 4 2 E 30 30
17.05.2019 07:00:00 2,0 -5,6 8 4 S 30 30
17.05.2019 06:00:00 1,6 -0,8 5 3 S 30 -
17.05.2019 05:00:00 1,8 -4,1 16 9 SSW 30 -
17.05.2019 04:00:00 1,8 -5,1 16 9 SSW 30 -
17.05.2019 03:00:00 1,6 -2,0 16 9 SSW 30 -
17.05.2019 02:00:00 1,4 -5,5 15 8 SSW 30 -
17.05.2019 01:00:00 2,0 -1,1 11 6 SSW 30 -
17.05.2019 00:00:00 2,2 0,3 8 4 S 30 -
16.05.2019 23:00:00 1,8 0,0 0 0 N 20 -
16.05.2019 22:00:00 2,0 0,5 8 4 SW 30 -
16.05.2019 21:00:00 2,0 1,6 9 5 SSW 0,1 -
16.05.2019 20:00:00 2,2 0,3 8 4 SW 30 0
16.05.2019 19:00:00 2,4 0,8 11 6 SW - 0
16.05.2019 18:00:00 2,4 0,8 8 4 SW - 0
16.05.2019 17:00:00 2,2 1,3 8 4 WSW - 0
16.05.2019 16:00:00 2,4 1,2 4 2 WNW - 0
16.05.2019 15:00:00 2,4 0,8 4 2 WSW - 0
16.05.2019 14:00:00 2,2 0,7 5 3 SSW 0,1 6
16.05.2019 13:00:00 1,4 -0,2 11 6 S 50 60
16.05.2019 12:00:00 1,0 -1,1 21 11 SSE 50 60
16.05.2019 11:00:00 0,6 -1,6 28 15 E 50 60
16.05.2019 10:00:00 0,0 -1,6 22 12 E 50 60
16.05.2019 09:00:00 -0,6 -4,3 24 13 E 50 60
16.05.2019 08:00:00 -1,2 -2,9 29 16 ENE 50 60
16.05.2019 07:00:00 -1,6 -3,3 29 16 ENE 30 30
16.05.2019 06:00:00 -2,2 -3,9 35 19 ENE 12 -
16.05.2019 05:00:00 -2,2 -3,9 35 19 ENE 20 -
16.05.2019 04:00:00 -2,6 -5,3 35 19 ENE 20 -
16.05.2019 03:00:00 -2,8 -6,4 35 19 ENE 20 -
16.05.2019 02:00:00 -3,2 -5,8 37 20 E - -
16.05.2019 01:00:00 -2,4 -4,7 44 24 ENE - -
16.05.2019 00:00:00 -1,4 -4,4 50 27 NE 12 -
15.05.2019 23:00:00 -1,2 -4,5 63 34 NE 20 -
15.05.2019 22:00:00 -1,4 -4,7 59 32 NE 20 -
15.05.2019 21:00:00 -2,2 -6,6 52 28 NE 20 -
15.05.2019 20:00:00 -2,8 -5,4 50 27 NE - 0
15.05.2019 19:00:00 -2,0 -4,5 65 35 NE - 0
15.05.2019 18:00:00 -0,4 -3,1 63 34 NNE - 0
15.05.2019 17:00:00 -1,0 -3,4 61 33 NNE - 0
15.05.2019 16:00:00 -1,6 -3,0 52 28 NE - 0
15.05.2019 15:00:00 -1,6 -3,2 50 27 NNE - 0
15.05.2019 14:00:00 -2,4 -3,7 39 21 NE - 0
15.05.2019 13:00:00 -1,6 -2,6 37 20 NNE - 0
15.05.2019 12:00:00 -2,0 -2,7 29 16 NNE - 0
15.05.2019 11:00:00 -2,4 -3,0 22 12 NNE - 0
15.05.2019 10:00:00 -3,0 -3,3 5 3 S - 0
15.05.2019 09:00:00 -3,6 -4,4 35 19 NNE - 0
15.05.2019 08:00:00 -3,8 -5,1 29 16 N - 0
15.05.2019 07:00:00 -3,0 -4,3 42 23 NNE - -
15.05.2019 06:00:00 -3,0 -4,3 31 17 NNE - -
15.05.2019 05:00:00 -3,0 -4,6 13 7 NNE 20 -

tt = temperature
td = dewpoint
ff = wind speed
dd = wind direction
vv = visibility
sd = sunshine duration

Next stations